sensor_id;sensor_type;location;lat;lon;timestamp;temperature;humidity
62555;DHT22;48610;52.144;8.624;2023-07-28T00:01:09;17.70;99.90
62555;DHT22;48610;52.144;8.624;2023-07-28T00:04:10;17.80;99.90
62555;DHT22;48610;52.144;8.624;2023-07-28T00:07:11;17.70;99.90
62555;DHT22;48610;52.144;8.624;2023-07-28T00:10:11;17.70;99.90
62555;DHT22;48610;52.144;8.624;2023-07-28T00:13:12;17.70;99.90
62555;DHT22;48610;52.144;8.624;2023-07-28T00:16:13;17.70;99.90
62555;DHT22;48610;52.144;8.624;2023-07-28T00:19:14;17.80;99.90
62555;DHT22;48610;52.144;8.624;2023-07-28T00:22:15;17.80;99.90
62555;DHT22;48610;52.144;8.624;2023-07-28T00:25:15;17.80;99.90
62555;DHT22;48610;52.144;8.624;2023-07-28T00:28:16;17.80;99.90
62555;DHT22;48610;52.144;8.624;2023-07-28T00:31:17;17.80;99.90
62555;DHT22;48610;52.144;8.624;2023-07-28T00:34:17;17.80;99.90
62555;DHT22;48610;52.144;8.624;2023-07-28T00:37:18;17.90;99.90
62555;DHT22;48610;52.144;8.624;2023-07-28T00:40:19;17.80;99.90
62555;DHT22;48610;52.144;8.624;2023-07-28T00:43:19;17.80;99.90
62555;DHT22;48610;52.144;8.624;2023-07-28T00:46:20;17.80;99.90
62555;DHT22;48610;52.144;8.624;2023-07-28T00:49:21;17.80;99.90
62555;DHT22;48610;52.144;8.624;2023-07-28T00:52:22;17.70;99.90
62555;DHT22;48610;52.144;8.624;2023-07-28T00:55:22;17.80;99.90
62555;DHT22;48610;52.144;8.624;2023-07-28T00:58:23;17.80;99.90
62555;DHT22;48610;52.144;8.624;2023-07-28T01:01:24;17.80;99.90
62555;DHT22;48610;52.144;8.624;2023-07-28T01:04:25;18.00;99.90
62555;DHT22;48610;52.144;8.624;2023-07-28T01:10:31;18.00;99.90
62555;DHT22;48610;52.144;8.624;2023-07-28T01:13:34;17.90;99.90
62555;DHT22;48610;52.144;8.624;2023-07-28T01:16:35;17.90;99.90
62555;DHT22;48610;52.144;8.624;2023-07-28T01:19:36;17.90;99.90
62555;DHT22;48610;52.144;8.624;2023-07-28T01:28:59;18.00;99.90
62555;DHT22;48610;52.144;8.624;2023-07-28T01:32:00;18.00;99.90
62555;DHT22;48610;52.144;8.624;2023-07-28T01:35:04;18.00;99.90
62555;DHT22;48610;52.144;8.624;2023-07-28T01:38:05;17.90;99.90
62555;DHT22;48610;52.144;8.624;2023-07-28T01:41:06;17.90;99.90
62555;DHT22;48610;52.144;8.624;2023-07-28T01:44:06;17.90;99.90
62555;DHT22;48610;52.144;8.624;2023-07-28T01:47:07;17.90;99.90
62555;DHT22;48610;52.144;8.624;2023-07-28T01:50:08;17.90;99.90
62555;DHT22;48610;52.144;8.624;2023-07-28T01:53:08;17.90;99.90
62555;DHT22;48610;52.144;8.624;2023-07-28T01:56:09;17.80;99.90
62555;DHT22;48610;52.144;8.624;2023-07-28T01:59:10;17.80;99.90
62555;DHT22;48610;52.144;8.624;2023-07-28T02:02:10;17.90;99.90
62555;DHT22;48610;52.144;8.624;2023-07-28T02:05:11;17.90;99.90
62555;DHT22;48610;52.144;8.624;2023-07-28T02:08:12;17.80;99.90
62555;DHT22;48610;52.144;8.624;2023-07-28T02:11:13;17.80;99.90
62555;DHT22;48610;52.144;8.624;2023-07-28T02:14:14;17.80;99.90
62555;DHT22;48610;52.144;8.624;2023-07-28T02:17:14;17.80;99.90
62555;DHT22;48610;52.144;8.624;2023-07-28T02:20:15;17.80;99.90
62555;DHT22;48610;52.144;8.624;2023-07-28T02:23:16;17.80;99.90
62555;DHT22;48610;52.144;8.624;2023-07-28T02:26:16;17.70;99.90
62555;DHT22;48610;52.144;8.624;2023-07-28T02:29:17;17.70;99.90
62555;DHT22;48610;52.144;8.624;2023-07-28T02:32:18;17.70;99.90
62555;DHT22;48610;52.144;8.624;2023-07-28T02:35:18;17.70;99.90
62555;DHT22;48610;52.144;8.624;2023-07-28T02:38:19;17.70;99.90
62555;DHT22;48610;52.144;8.624;2023-07-28T02:41:20;17.70;99.90
62555;DHT22;48610;52.144;8.624;2023-07-28T02:44:21;17.60;99.90
62555;DHT22;48610;52.144;8.624;2023-07-28T02:47:21;17.70;99.90
62555;DHT22;48610;52.144;8.624;2023-07-28T02:50:22;17.70;99.90
62555;DHT22;48610;52.144;8.624;2023-07-28T02:53:23;17.70;99.90
62555;DHT22;48610;52.144;8.624;2023-07-28T02:56:24;17.60;99.90
62555;DHT22;48610;52.144;8.624;2023-07-28T02:59:25;17.50;99.90
62555;DHT22;48610;52.144;8.624;2023-07-28T03:02:25;17.60;99.90
62555;DHT22;48610;52.144;8.624;2023-07-28T03:05:26;17.60;99.90
62555;DHT22;48610;52.144;8.624;2023-07-28T03:08:27;17.70;99.90
62555;DHT22;48610;52.144;8.624;2023-07-28T03:11:27;17.70;99.90
62555;DHT22;48610;52.144;8.624;2023-07-28T03:14:28;17.80;99.90
62555;DHT22;48610;52.144;8.624;2023-07-28T03:17:29;17.70;99.90
62555;DHT22;48610;52.144;8.624;2023-07-28T03:20:30;17.70;99.90
62555;DHT22;48610;52.144;8.624;2023-07-28T03:23:31;17.60;99.90
62555;DHT22;48610;52.144;8.624;2023-07-28T03:26:32;17.50;99.90
62555;DHT22;48610;52.144;8.624;2023-07-28T03:29:32;17.50;99.90
62555;DHT22;48610;52.144;8.624;2023-07-28T03:32:33;17.50;99.90
62555;DHT22;48610;52.144;8.624;2023-07-28T03:35:34;17.60;99.90
62555;DHT22;48610;52.144;8.624;2023-07-28T03:38:35;17.70;99.90
62555;DHT22;48610;52.144;8.624;2023-07-28T03:41:36;17.70;99.90
62555;DHT22;48610;52.144;8.624;2023-07-28T03:44:37;17.70;99.90
62555;DHT22;48610;52.144;8.624;2023-07-28T03:47:41;17.70;99.90
62555;DHT22;48610;52.144;8.624;2023-07-28T03:50:42;17.80;99.90
62555;DHT22;48610;52.144;8.624;2023-07-28T03:53:43;17.70;99.90
62555;DHT22;48610;52.144;8.624;2023-07-28T03:56:43;17.70;99.90
62555;DHT22;48610;52.144;8.624;2023-07-28T03:59:44;17.70;99.90
62555;DHT22;48610;52.144;8.624;2023-07-28T04:02:44;17.60;99.90
62555;DHT22;48610;52.144;8.624;2023-07-28T04:05:45;17.70;99.90
62555;DHT22;48610;52.144;8.624;2023-07-28T04:08:46;17.70;99.90
62555;DHT22;48610;52.144;8.624;2023-07-28T04:11:47;17.70;99.90
62555;DHT22;48610;52.144;8.624;2023-07-28T04:14:47;17.70;99.90
62555;DHT22;48610;52.144;8.624;2023-07-28T04:17:48;17.70;99.90
62555;DHT22;48610;52.144;8.624;2023-07-28T04:20:49;17.70;99.90
62555;DHT22;48610;52.144;8.624;2023-07-28T04:23:49;17.70;99.90
62555;DHT22;48610;52.144;8.624;2023-07-28T04:26:50;17.70;99.90
62555;DHT22;48610;52.144;8.624;2023-07-28T04:29:50;17.70;99.90
62555;DHT22;48610;52.144;8.624;2023-07-28T04:32:51;17.70;99.90
62555;DHT22;48610;52.144;8.624;2023-07-28T04:35:52;17.60;99.90
62555;DHT22;48610;52.144;8.624;2023-07-28T04:38:52;17.70;99.90
62555;DHT22;48610;52.144;8.624;2023-07-28T04:41:53;17.70;99.90
62555;DHT22;48610;52.144;8.624;2023-07-28T04:44:54;17.70;99.90
62555;DHT22;48610;52.144;8.624;2023-07-28T04:47:54;17.70;99.90
62555;DHT22;48610;52.144;8.624;2023-07-28T04:50:55;17.70;99.90
62555;DHT22;48610;52.144;8.624;2023-07-28T04:53:55;17.70;99.90
62555;DHT22;48610;52.144;8.624;2023-07-28T04:56:56;17.70;99.90
62555;DHT22;48610;52.144;8.624;2023-07-28T04:59:57;17.70;99.90
62555;DHT22;48610;52.144;8.624;2023-07-28T05:02:57;17.70;99.90
62555;DHT22;48610;52.144;8.624;2023-07-28T05:05:58;17.70;99.90
62555;DHT22;48610;52.144;8.624;2023-07-28T05:08:59;17.80;99.90
62555;DHT22;48610;52.144;8.624;2023-07-28T05:11:59;17.70;99.90
62555;DHT22;48610;52.144;8.624;2023-07-28T05:15:00;17.70;99.90
62555;DHT22;48610;52.144;8.624;2023-07-28T05:18:00;17.80;99.90
62555;DHT22;48610;52.144;8.624;2023-07-28T05:21:01;17.80;99.90
62555;DHT22;48610;52.144;8.624;2023-07-28T05:24:02;17.80;99.90
62555;DHT22;48610;52.144;8.624;2023-07-28T05:27:02;17.80;99.90
62555;DHT22;48610;52.144;8.624;2023-07-28T05:30:03;17.80;99.90
62555;DHT22;48610;52.144;8.624;2023-07-28T05:33:04;17.90;99.90
62555;DHT22;48610;52.144;8.624;2023-07-28T05:36:05;17.90;99.90
62555;DHT22;48610;52.144;8.624;2023-07-28T05:39:05;18.00;99.90
62555;DHT22;48610;52.144;8.624;2023-07-28T05:42:06;17.90;99.90
62555;DHT22;48610;52.144;8.624;2023-07-28T05:45:07;17.90;99.90
62555;DHT22;48610;52.144;8.624;2023-07-28T05:48:08;17.90;99.90
62555;DHT22;48610;52.144;8.624;2023-07-28T05:51:09;17.90;99.90
62555;DHT22;48610;52.144;8.624;2023-07-28T05:54:09;18.00;99.90
62555;DHT22;48610;52.144;8.624;2023-07-28T05:57:10;18.00;99.90
62555;DHT22;48610;52.144;8.624;2023-07-28T06:00:11;18.10;99.90
62555;DHT22;48610;52.144;8.624;2023-07-28T06:03:12;18.10;99.90
62555;DHT22;48610;52.144;8.624;2023-07-28T06:06:13;18.20;99.90
62555;DHT22;48610;52.144;8.624;2023-07-28T06:09:13;18.20;99.90
62555;DHT22;48610;52.144;8.624;2023-07-28T06:12:14;18.20;99.90
62555;DHT22;48610;52.144;8.624;2023-07-28T06:15:16;18.30;99.90
62555;DHT22;48610;52.144;8.624;2023-07-28T06:18:17;18.30;99.90
62555;DHT22;48610;52.144;8.624;2023-07-28T06:21:17;18.30;99.90
62555;DHT22;48610;52.144;8.624;2023-07-28T06:24:18;18.20;99.90
62555;DHT22;48610;52.144;8.624;2023-07-28T06:27:19;18.10;99.90
62555;DHT22;48610;52.144;8.624;2023-07-28T06:30:20;18.30;99.90
62555;DHT22;48610;52.144;8.624;2023-07-28T06:33:21;18.40;99.90
62555;DHT22;48610;52.144;8.624;2023-07-28T06:36:21;18.40;99.90
62555;DHT22;48610;52.144;8.624;2023-07-28T06:39:22;18.40;99.90
62555;DHT22;48610;52.144;8.624;2023-07-28T06:42:23;18.40;99.90
62555;DHT22;48610;52.144;8.624;2023-07-28T06:45:24;18.50;99.90
62555;DHT22;48610;52.144;8.624;2023-07-28T06:48:25;18.60;99.90
62555;DHT22;48610;52.144;8.624;2023-07-28T06:51:25;18.60;99.90
62555;DHT22;48610;52.144;8.624;2023-07-28T06:54:26;18.60;99.90
62555;DHT22;48610;52.144;8.624;2023-07-28T06:57:26;18.50;99.90
62555;DHT22;48610;52.144;8.624;2023-07-28T07:00:27;18.60;99.90
62555;DHT22;48610;52.144;8.624;2023-07-28T07:03:28;18.70;99.90
62555;DHT22;48610;52.144;8.624;2023-07-28T07:06:28;18.70;99.90
62555;DHT22;48610;52.144;8.624;2023-07-28T07:09:29;18.60;99.90
62555;DHT22;48610;52.144;8.624;2023-07-28T07:12:30;18.70;99.90
62555;DHT22;48610;52.144;8.624;2023-07-28T07:15:34;18.70;99.90
62555;DHT22;48610;52.144;8.624;2023-07-28T07:18:35;18.60;99.90
62555;DHT22;48610;52.144;8.624;2023-07-28T07:21:36;18.60;99.90
62555;DHT22;48610;52.144;8.624;2023-07-28T07:24:37;18.60;99.90
62555;DHT22;48610;52.144;8.624;2023-07-28T07:27:37;18.60;99.90
62555;DHT22;48610;52.144;8.624;2023-07-28T07:30:38;18.80;99.90
62555;DHT22;48610;52.144;8.624;2023-07-28T07:33:40;18.90;99.90
62555;DHT22;48610;52.144;8.624;2023-07-28T07:36:41;18.70;99.90
62555;DHT22;48610;52.144;8.624;2023-07-28T07:39:42;18.90;99.90
62555;DHT22;48610;52.144;8.624;2023-07-28T07:42:46;18.80;99.90
62555;DHT22;48610;52.144;8.624;2023-07-28T07:45:47;18.80;99.90
62555;DHT22;48610;52.144;8.624;2023-07-28T07:48:50;18.80;99.90
62555;DHT22;48610;52.144;8.624;2023-07-28T07:51:51;18.80;99.90
62555;DHT22;48610;52.144;8.624;2023-07-28T07:54:51;18.70;99.90
62555;DHT22;48610;52.144;8.624;2023-07-28T07:57:52;18.70;99.90
62555;DHT22;48610;52.144;8.624;2023-07-28T08:00:53;18.80;99.90
62555;DHT22;48610;52.144;8.624;2023-07-28T08:03:54;18.90;99.90
62555;DHT22;48610;52.144;8.624;2023-07-28T08:06:54;18.80;99.90
62555;DHT22;48610;52.144;8.624;2023-07-28T08:09:55;18.70;99.90
62555;DHT22;48610;52.144;8.624;2023-07-28T08:12:55;18.80;99.90
62555;DHT22;48610;52.144;8.624;2023-07-28T08:15:56;18.90;99.90
62555;DHT22;48610;52.144;8.624;2023-07-28T08:18:57;19.00;99.90
62555;DHT22;48610;52.144;8.624;2023-07-28T08:21:57;18.90;99.90
62555;DHT22;48610;52.144;8.624;2023-07-28T08:24:58;19.10;99.90
62555;DHT22;48610;52.144;8.624;2023-07-28T08:27:59;19.20;99.90
62555;DHT22;48610;52.144;8.624;2023-07-28T08:31:00;19.40;99.90
62555;DHT22;48610;52.144;8.624;2023-07-28T08:34:01;19.60;99.90
62555;DHT22;48610;52.144;8.624;2023-07-28T08:37:02;19.60;99.90
62555;DHT22;48610;52.144;8.624;2023-07-28T08:40:03;19.80;99.90
62555;DHT22;48610;52.144;8.624;2023-07-28T08:43:05;19.90;99.90
62555;DHT22;48610;52.144;8.624;2023-07-28T08:46:06;20.10;99.90
62555;DHT22;48610;52.144;8.624;2023-07-28T08:49:07;20.10;99.90
62555;DHT22;48610;52.144;8.624;2023-07-28T08:52:08;20.30;99.90
62555;DHT22;48610;52.144;8.624;2023-07-28T08:55:08;20.40;99.90
62555;DHT22;48610;52.144;8.624;2023-07-28T08:58:18;20.40;99.90
62555;DHT22;48610;52.144;8.624;2023-07-28T09:01:22;20.40;99.90
62555;DHT22;48610;52.144;8.624;2023-07-28T09:04:24;20.40;99.90
62555;DHT22;48610;52.144;8.624;2023-07-28T09:07:24;20.60;99.90
62555;DHT22;48610;52.144;8.624;2023-07-28T09:10:47;20.60;99.90
62555;DHT22;48610;52.144;8.624;2023-07-28T09:13:53;20.70;99.90
62555;DHT22;48610;52.144;8.624;2023-07-28T09:16:54;20.50;99.90
62555;DHT22;48610;52.144;8.624;2023-07-28T09:19:56;20.80;99.90
62555;DHT22;48610;52.144;8.624;2023-07-28T09:22:57;21.00;99.90
62555;DHT22;48610;52.144;8.624;2023-07-28T09:26:01;21.10;99.90
62555;DHT22;48610;52.144;8.624;2023-07-28T09:29:18;20.90;99.90
62555;DHT22;48610;52.144;8.624;2023-07-28T09:32:32;20.70;99.90
62555;DHT22;48610;52.144;8.624;2023-07-28T09:35:50;20.60;99.90
62555;DHT22;48610;52.144;8.624;2023-07-28T09:38:51;20.40;99.90
62555;DHT22;48610;52.144;8.624;2023-07-28T09:41:53;20.40;99.90
62555;DHT22;48610;52.144;8.624;2023-07-28T09:44:58;20.60;99.90
62555;DHT22;48610;52.144;8.624;2023-07-28T09:48:00;20.80;99.90
62555;DHT22;48610;52.144;8.624;2023-07-28T09:51:14;21.20;99.90
62555;DHT22;48610;52.144;8.624;2023-07-28T09:54:23;21.30;99.90
62555;DHT22;48610;52.144;8.624;2023-07-28T09:57:27;21.00;99.90
62555;DHT22;48610;52.144;8.624;2023-07-28T10:00:29;21.10;99.90
62555;DHT22;48610;52.144;8.624;2023-07-28T10:03:32;21.40;99.90
62555;DHT22;48610;52.144;8.624;2023-07-28T10:06:33;21.50;99.90
62555;DHT22;48610;52.144;8.624;2023-07-28T10:09:34;21.60;99.90
62555;DHT22;48610;52.144;8.624;2023-07-28T10:12:49;21.50;99.90
62555;DHT22;48610;52.144;8.624;2023-07-28T10:15:50;21.60;99.90
62555;DHT22;48610;52.144;8.624;2023-07-28T10:18:55;21.50;99.90
62555;DHT22;48610;52.144;8.624;2023-07-28T10:22:22;21.40;99.90
62555;DHT22;48610;52.144;8.624;2023-07-28T10:25:23;21.40;99.90
62555;DHT22;48610;52.144;8.624;2023-07-28T10:28:38;21.40;99.90
62555;DHT22;48610;52.144;8.624;2023-07-28T10:31:52;21.70;99.90
62555;DHT22;48610;52.144;8.624;2023-07-28T10:35:00;21.90;99.90
62555;DHT22;48610;52.144;8.624;2023-07-28T10:38:29;21.80;99.90
62555;DHT22;48610;52.144;8.624;2023-07-28T10:41:37;21.80;99.90
62555;DHT22;48610;52.144;8.624;2023-07-28T10:44:37;21.70;99.90
62555;DHT22;48610;52.144;8.624;2023-07-28T10:47:39;21.60;99.90
62555;DHT22;48610;52.144;8.624;2023-07-28T10:50:40;21.70;99.90
62555;DHT22;48610;52.144;8.624;2023-07-28T10:53:42;21.70;99.90
62555;DHT22;48610;52.144;8.624;2023-07-28T10:56:43;21.40;99.90
62555;DHT22;48610;52.144;8.624;2023-07-28T10:59:44;21.70;99.90
62555;DHT22;48610;52.144;8.624;2023-07-28T11:02:46;22.00;99.90
62555;DHT22;48610;52.144;8.624;2023-07-28T11:05:48;22.00;99.90
62555;DHT22;48610;52.144;8.624;2023-07-28T11:08:50;21.80;99.90
62555;DHT22;48610;52.144;8.624;2023-07-28T11:11:51;22.10;99.90
62555;DHT22;48610;52.144;8.624;2023-07-28T11:14:52;22.20;99.90
62555;DHT22;48610;52.144;8.624;2023-07-28T11:17:53;22.20;99.90
62555;DHT22;48610;52.144;8.624;2023-07-28T11:20:54;22.60;99.90
62555;DHT22;48610;52.144;8.624;2023-07-28T11:23:55;22.90;99.90
62555;DHT22;48610;52.144;8.624;2023-07-28T11:26:57;23.00;99.90
62555;DHT22;48610;52.144;8.624;2023-07-28T11:29:58;22.80;99.90
62555;DHT22;48610;52.144;8.624;2023-07-28T11:32:59;22.70;99.90
62555;DHT22;48610;52.144;8.624;2023-07-28T11:36:00;22.30;99.90
62555;DHT22;48610;52.144;8.624;2023-07-28T11:39:01;22.40;99.90
62555;DHT22;48610;52.144;8.624;2023-07-28T11:42:06;22.30;99.90
62555;DHT22;48610;52.144;8.624;2023-07-28T11:45:07;22.20;99.90
62555;DHT22;48610;52.144;8.624;2023-07-28T11:48:09;21.90;99.90
62555;DHT22;48610;52.144;8.624;2023-07-28T11:51:13;21.70;99.90
62555;DHT22;48610;52.144;8.624;2023-07-28T11:54:15;21.60;99.90
62555;DHT22;48610;52.144;8.624;2023-07-28T11:57:16;21.80;99.90
62555;DHT22;48610;52.144;8.624;2023-07-28T12:00:17;22.20;99.90
62555;DHT22;48610;52.144;8.624;2023-07-28T12:03:18;22.50;99.90
62555;DHT22;48610;52.144;8.624;2023-07-28T12:06:18;23.20;99.90
62555;DHT22;48610;52.144;8.624;2023-07-28T12:09:19;23.30;99.90
62555;DHT22;48610;52.144;8.624;2023-07-28T12:12:22;23.10;99.90
62555;DHT22;48610;52.144;8.624;2023-07-28T12:15:28;23.20;99.90
62555;DHT22;48610;52.144;8.624;2023-07-28T12:18:30;23.20;99.90
62555;DHT22;48610;52.144;8.624;2023-07-28T12:21:32;23.10;99.90
62555;DHT22;48610;52.144;8.624;2023-07-28T12:24:32;23.30;99.90
62555;DHT22;48610;52.144;8.624;2023-07-28T12:27:33;23.30;99.90
62555;DHT22;48610;52.144;8.624;2023-07-28T12:30:35;23.10;99.90
62555;DHT22;48610;52.144;8.624;2023-07-28T12:33:35;23.30;99.90
62555;DHT22;48610;52.144;8.624;2023-07-28T12:36:36;22.80;99.90
62555;DHT22;48610;52.144;8.624;2023-07-28T12:39:38;22.90;99.90
62555;DHT22;48610;52.144;8.624;2023-07-28T12:42:41;22.80;99.90
62555;DHT22;48610;52.144;8.624;2023-07-28T12:45:42;23.40;99.90
62555;DHT22;48610;52.144;8.624;2023-07-28T12:48:43;23.90;99.90
62555;DHT22;48610;52.144;8.624;2023-07-28T12:51:44;23.80;99.90
62555;DHT22;48610;52.144;8.624;2023-07-28T12:54:45;23.60;99.90
62555;DHT22;48610;52.144;8.624;2023-07-28T12:57:46;23.80;99.90
62555;DHT22;48610;52.144;8.624;2023-07-28T13:00:48;24.10;99.90
62555;DHT22;48610;52.144;8.624;2023-07-28T13:03:49;24.10;99.90
62555;DHT22;48610;52.144;8.624;2023-07-28T13:06:50;24.20;99.90
62555;DHT22;48610;52.144;8.624;2023-07-28T13:09:50;24.60;99.90
62555;DHT22;48610;52.144;8.624;2023-07-28T13:12:51;24.80;99.90
62555;DHT22;48610;52.144;8.624;2023-07-28T13:15:51;24.60;99.90
62555;DHT22;48610;52.144;8.624;2023-07-28T13:18:52;24.60;99.90
62555;DHT22;48610;52.144;8.624;2023-07-28T13:21:53;24.80;99.90
62555;DHT22;48610;52.144;8.624;2023-07-28T13:24:54;24.70;99.90
62555;DHT22;48610;52.144;8.624;2023-07-28T13:27:54;24.70;99.90
62555;DHT22;48610;52.144;8.624;2023-07-28T13:30:55;24.40;99.90
62555;DHT22;48610;52.144;8.624;2023-07-28T13:33:56;24.20;99.90
62555;DHT22;48610;52.144;8.624;2023-07-28T13:36:56;24.10;99.90
62555;DHT22;48610;52.144;8.624;2023-07-28T13:39:57;23.90;99.90
62555;DHT22;48610;52.144;8.624;2023-07-28T13:42:58;24.00;99.90
62555;DHT22;48610;52.144;8.624;2023-07-28T13:45:58;24.20;99.90
62555;DHT22;48610;52.144;8.624;2023-07-28T13:48:59;24.20;99.90
62555;DHT22;48610;52.144;8.624;2023-07-28T13:51:59;24.10;99.90
62555;DHT22;48610;52.144;8.624;2023-07-28T13:55:00;24.10;99.90
62555;DHT22;48610;52.144;8.624;2023-07-28T13:58:01;24.20;99.90
62555;DHT22;48610;52.144;8.624;2023-07-28T14:01:02;24.20;99.90
62555;DHT22;48610;52.144;8.624;2023-07-28T14:04:03;24.60;99.90
62555;DHT22;48610;52.144;8.624;2023-07-28T14:07:04;24.90;99.90
62555;DHT22;48610;52.144;8.624;2023-07-28T14:10:05;25.00;99.90
62555;DHT22;48610;52.144;8.624;2023-07-28T14:13:06;24.80;99.90
62555;DHT22;48610;52.144;8.624;2023-07-28T14:16:06;24.50;99.90
62555;DHT22;48610;52.144;8.624;2023-07-28T14:19:10;24.40;99.90
62555;DHT22;48610;52.144;8.624;2023-07-28T14:22:11;24.50;99.90
62555;DHT22;48610;52.144;8.624;2023-07-28T14:25:12;24.80;99.90
62555;DHT22;48610;52.144;8.624;2023-07-28T14:28:13;25.10;99.90
62555;DHT22;48610;52.144;8.624;2023-07-28T14:31:13;25.00;99.90
62555;DHT22;48610;52.144;8.624;2023-07-28T14:34:14;24.90;99.90
62555;DHT22;48610;52.144;8.624;2023-07-28T14:37:15;24.80;99.90
62555;DHT22;48610;52.144;8.624;2023-07-28T14:40:16;24.60;99.90
62555;DHT22;48610;52.144;8.624;2023-07-28T14:43:16;24.60;99.90
62555;DHT22;48610;52.144;8.624;2023-07-28T14:46:17;24.30;99.90
62555;DHT22;48610;52.144;8.624;2023-07-28T14:49:18;24.40;99.90
62555;DHT22;48610;52.144;8.624;2023-07-28T14:52:18;24.80;99.90
62555;DHT22;48610;52.144;8.624;2023-07-28T14:55:19;24.70;99.90
62555;DHT22;48610;52.144;8.624;2023-07-28T14:58:20;24.60;99.90
62555;DHT22;48610;52.144;8.624;2023-07-28T15:01:21;24.30;99.90
62555;DHT22;48610;52.144;8.624;2023-07-28T15:04:21;24.30;99.90
62555;DHT22;48610;52.144;8.624;2023-07-28T15:07:22;24.40;99.90
62555;DHT22;48610;52.144;8.624;2023-07-28T15:10:23;24.50;99.90
62555;DHT22;48610;52.144;8.624;2023-07-28T15:13:23;24.40;99.90
62555;DHT22;48610;52.144;8.624;2023-07-28T15:16:24;24.30;99.90
62555;DHT22;48610;52.144;8.624;2023-07-28T15:19:25;24.10;99.90
62555;DHT22;48610;52.144;8.624;2023-07-28T15:22:26;24.20;99.90
62555;DHT22;48610;52.144;8.624;2023-07-28T15:25:26;24.20;99.90
62555;DHT22;48610;52.144;8.624;2023-07-28T15:28:27;24.20;99.90
62555;DHT22;48610;52.144;8.624;2023-07-28T15:31:28;24.20;99.90
62555;DHT22;48610;52.144;8.624;2023-07-28T15:34:29;24.20;99.90
62555;DHT22;48610;52.144;8.624;2023-07-28T15:37:32;24.30;99.90
62555;DHT22;48610;52.144;8.624;2023-07-28T15:40:32;24.40;99.90
62555;DHT22;48610;52.144;8.624;2023-07-28T15:43:33;24.40;99.90
62555;DHT22;48610;52.144;8.624;2023-07-28T15:46:34;24.40;99.90
62555;DHT22;48610;52.144;8.624;2023-07-28T15:49:35;24.40;99.90
62555;DHT22;48610;52.144;8.624;2023-07-28T15:52:36;24.30;99.90
62555;DHT22;48610;52.144;8.624;2023-07-28T15:55:37;24.50;99.90
62555;DHT22;48610;52.144;8.624;2023-07-28T15:58:37;24.50;99.90
62555;DHT22;48610;52.144;8.624;2023-07-28T16:01:38;24.50;99.90
62555;DHT22;48610;52.144;8.624;2023-07-28T16:04:39;24.50;99.90
62555;DHT22;48610;52.144;8.624;2023-07-28T16:07:40;24.40;99.90
62555;DHT22;48610;52.144;8.624;2023-07-28T16:10:40;24.40;99.90
62555;DHT22;48610;52.144;8.624;2023-07-28T16:13:41;24.30;99.90
62555;DHT22;48610;52.144;8.624;2023-07-28T16:16:42;24.20;99.90
62555;DHT22;48610;52.144;8.624;2023-07-28T16:19:42;24.20;99.90
62555;DHT22;48610;52.144;8.624;2023-07-28T16:22:43;24.40;99.90
62555;DHT22;48610;52.144;8.624;2023-07-28T16:25:44;24.70;99.90
62555;DHT22;48610;52.144;8.624;2023-07-28T16:28:48;24.80;99.90
62555;DHT22;48610;52.144;8.624;2023-07-28T16:31:48;24.80;99.90
62555;DHT22;48610;52.144;8.624;2023-07-28T16:34:49;24.80;99.90
62555;DHT22;48610;52.144;8.624;2023-07-28T16:37:50;24.80;99.90
62555;DHT22;48610;52.144;8.624;2023-07-28T16:40:51;24.60;99.90
62555;DHT22;48610;52.144;8.624;2023-07-28T16:43:51;24.50;99.90
62555;DHT22;48610;52.144;8.624;2023-07-28T16:46:52;24.60;99.90
62555;DHT22;48610;52.144;8.624;2023-07-28T16:49:53;24.70;99.90
62555;DHT22;48610;52.144;8.624;2023-07-28T16:52:53;24.70;99.90
62555;DHT22;48610;52.144;8.624;2023-07-28T16:55:54;24.70;99.90
62555;DHT22;48610;52.144;8.624;2023-07-28T16:58:54;24.80;99.90
62555;DHT22;48610;52.144;8.624;2023-07-28T17:01:55;24.90;99.90
62555;DHT22;48610;52.144;8.624;2023-07-28T17:04:56;24.70;99.90
62555;DHT22;48610;52.144;8.624;2023-07-28T17:07:56;24.50;99.90
62555;DHT22;48610;52.144;8.624;2023-07-28T17:10:57;24.30;99.90
62555;DHT22;48610;52.144;8.624;2023-07-28T17:13:59;24.20;99.90
62555;DHT22;48610;52.144;8.624;2023-07-28T17:16:59;24.10;99.90
62555;DHT22;48610;52.144;8.624;2023-07-28T17:20:00;24.20;99.90
62555;DHT22;48610;52.144;8.624;2023-07-28T17:23:01;24.20;99.90
62555;DHT22;48610;52.144;8.624;2023-07-28T17:26:02;24.20;99.90
62555;DHT22;48610;52.144;8.624;2023-07-28T17:29:02;24.00;99.90
62555;DHT22;48610;52.144;8.624;2023-07-28T17:32:03;23.90;99.90
62555;DHT22;48610;52.144;8.624;2023-07-28T17:35:04;23.90;99.90
62555;DHT22;48610;52.144;8.624;2023-07-28T17:38:05;24.00;99.90
62555;DHT22;48610;52.144;8.624;2023-07-28T17:41:07;24.10;99.90
62555;DHT22;48610;52.144;8.624;2023-07-28T17:44:08;24.20;99.90
62555;DHT22;48610;52.144;8.624;2023-07-28T17:47:09;24.30;99.90
62555;DHT22;48610;52.144;8.624;2023-07-28T17:50:09;24.20;99.90
62555;DHT22;48610;52.144;8.624;2023-07-28T17:53:11;24.30;99.90
62555;DHT22;48610;52.144;8.624;2023-07-28T17:56:12;24.30;99.90
62555;DHT22;48610;52.144;8.624;2023-07-28T17:59:13;24.30;99.90
62555;DHT22;48610;52.144;8.624;2023-07-28T18:02:14;24.30;99.90
62555;DHT22;48610;52.144;8.624;2023-07-28T18:05:15;24.00;99.90
62555;DHT22;48610;52.144;8.624;2023-07-28T18:08:16;23.90;99.90
62555;DHT22;48610;52.144;8.624;2023-07-28T18:11:16;23.90;99.90
62555;DHT22;48610;52.144;8.624;2023-07-28T18:14:17;23.80;99.90
62555;DHT22;48610;52.144;8.624;2023-07-28T18:17:19;23.80;99.90
62555;DHT22;48610;52.144;8.624;2023-07-28T18:20:20;23.80;99.90
62555;DHT22;48610;52.144;8.624;2023-07-28T18:23:22;23.80;99.90
62555;DHT22;48610;52.144;8.624;2023-07-28T18:26:23;23.70;99.90
62555;DHT22;48610;52.144;8.624;2023-07-28T18:29:23;23.70;99.90
62555;DHT22;48610;52.144;8.624;2023-07-28T18:32:24;23.60;99.90
62555;DHT22;48610;52.144;8.624;2023-07-28T18:35:25;23.50;99.90
62555;DHT22;48610;52.144;8.624;2023-07-28T18:38:26;23.40;99.90
62555;DHT22;48610;52.144;8.624;2023-07-28T18:41:26;23.40;99.90
62555;DHT22;48610;52.144;8.624;2023-07-28T18:44:27;23.40;99.90
62555;DHT22;48610;52.144;8.624;2023-07-28T18:47:27;23.30;99.90
62555;DHT22;48610;52.144;8.624;2023-07-28T18:50:28;23.30;99.90
62555;DHT22;48610;52.144;8.624;2023-07-28T18:53:29;23.10;99.90
62555;DHT22;48610;52.144;8.624;2023-07-28T18:56:30;23.10;99.90
62555;DHT22;48610;52.144;8.624;2023-07-28T18:59:31;22.90;99.90
62555;DHT22;48610;52.144;8.624;2023-07-28T19:02:31;22.80;99.90
62555;DHT22;48610;52.144;8.624;2023-07-28T19:05:32;22.70;99.90
62555;DHT22;48610;52.144;8.624;2023-07-28T19:08:32;22.60;99.90
62555;DHT22;48610;52.144;8.624;2023-07-28T19:11:33;22.40;99.90
62555;DHT22;48610;52.144;8.624;2023-07-28T19:14:36;22.40;99.90